Time;durP1;ratioP1;P1;durP2;ratioP2;P2;SDS_P1;SDS_P2;PMS_P1;PMS_P2;Temp;Humidity;BMP_temperature;BMP_pressure;BME280_temperature;BME280_humidity;BME280_pressure;Samples;Min_cycle;Max_cycle;Signal;HPM_P1;HPM_P2
2021/01/23 00:00:54;;;;;;;62.55;30.65;;;0.00;99.90;;;;;;5004167;28;20118;-76
2021/01/23 00:03:21;;;;;;;61.35;31.60;;;0.10;99.90;;;;;;5007987;28;20046;-76
2021/01/23 00:05:47;;;;;;;62.35;30.75;;;0.10;99.90;;;;;;5024445;28;20085;-76
2021/01/23 00:08:14;;;;;;;58.97;29.23;;;0.00;99.90;;;;;;4991902;28;20041;-76
2021/01/23 00:10:40;;;;;;;56.10;28.95;;;0.10;99.90;;;;;;5024131;28;20480;-76
2021/01/23 00:13:07;;;;;;;71.53;29.88;;;0.20;99.90;;;;;;5023927;28;20050;-76
2021/01/23 00:15:33;;;;;;;56.95;30.02;;;0.30;99.90;;;;;;5022718;28;20054;-76
2021/01/23 00:17:59;;;;;;;62.67;31.25;;;0.40;99.90;;;;;;5008697;28;20080;-76
2021/01/23 00:20:26;;;;;;;60.65;29.17;;;0.30;99.90;;;;;;4991293;28;20068;-76
2021/01/23 00:22:53;;;;;;;60.10;29.20;;;0.20;99.90;;;;;;5010945;28;20060;-76
2021/01/23 00:25:19;;;;;;;65.82;29.35;;;0.10;99.90;;;;;;5023411;28;20042;-77
2021/01/23 00:27:46;;;;;;;63.28;30.10;;;0.30;99.90;;;;;;5008633;28;20334;-77
2021/01/23 00:30:13;;;;;;;61.42;29.55;;;0.30;99.90;;;;;;5007824;28;20140;-76
2021/01/23 00:32:39;;;;;;;60.22;29.60;;;0.40;99.90;;;;;;5024211;28;20055;-77
2021/01/23 00:35:06;;;;;;;56.45;29.85;;;0.30;99.90;;;;;;5007253;28;20054;-76
2021/01/23 00:37:34;;;;;;;62.60;30.38;;;0.10;99.90;;;;;;5007241;28;20122;-75
2021/01/23 00:40:00;;;;;;;60.03;30.38;;;0.10;99.90;;;;;;5007095;28;20140;-75
2021/01/23 00:42:28;;;;;;;58.78;30.90;;;0.20;99.90;;;;;;5023718;28;20075;-76
2021/01/23 00:44:55;;;;;;;57.35;30.13;;;0.20;99.90;;;;;;5007202;28;20038;-77
2021/01/23 00:47:21;;;;;;;61.33;29.00;;;0.30;99.90;;;;;;5007439;28;20053;-76
2021/01/23 00:49:48;;;;;;;54.53;30.88;;;0.20;99.90;;;;;;5007319;28;20049;-76
2021/01/23 00:52:14;;;;;;;54.47;30.30;;;0.20;99.90;;;;;;5023327;28;20048;-76
2021/01/23 00:54:42;;;;;;;60.65;32.08;;;0.30;99.90;;;;;;4998136;28;20137;-77
2021/01/23 00:57:09;;;;;;;65.75;32.30;;;0.40;99.90;;;;;;4987694;28;20046;-76
2021/01/23 00:59:36;;;;;;;65.28;32.35;;;0.40;99.90;;;;;;4988242;28;20050;-76
2021/01/23 01:02:02;;;;;;;64.78;31.00;;;0.30;99.90;;;;;;4991801;28;20052;-75
2021/01/23 01:04:36;;;;;;;65.32;31.70;;;0.30;99.90;;;;;;5008079;28;20056;-76
2021/01/23 01:07:03;;;;;;;63.67;30.83;;;0.30;99.90;;;;;;5006472;28;20140;-76
2021/01/23 01:09:29;;;;;;;63.42;31.63;;;0.30;99.90;;;;;;5024088;28;20647;-76
2021/01/23 01:11:56;;;;;;;67.35;30.40;;;0.20;99.90;;;;;;5006176;28;20049;-76
2021/01/23 01:14:22;;;;;;;62.40;31.90;;;0.20;99.90;;;;;;4990747;28;20041;-75
2021/01/23 01:16:49;;;;;;;64.90;31.10;;;0.20;99.90;;;;;;5007080;28;20049;-76
2021/01/23 01:19:15;;;;;;;62.47;30.58;;;0.20;99.90;;;;;;5024294;28;20054;-76
2021/01/23 01:21:42;;;;;;;65.40;32.00;;;0.20;99.90;;;;;;5023190;28;20053;-76
2021/01/23 01:24:09;;;;;;;67.07;32.03;;;0.20;99.90;;;;;;5007857;28;20050;-75
2021/01/23 01:26:36;;;;;;;63.30;31.95;;;0.30;99.90;;;;;;5026055;28;20503;-75
2021/01/23 01:29:03;;;;;;;69.88;32.88;;;0.40;99.90;;;;;;5008286;28;20050;-75
2021/01/23 01:31:29;;;;;;;75.80;34.53;;;0.30;99.90;;;;;;5013401;28;20421;-75
2021/01/23 01:33:56;;;;;;;69.72;33.60;;;0.30;99.90;;;;;;5027756;28;20119;-75
2021/01/23 01:36:22;;;;;;;67.50;33.38;;;0.30;99.90;;;;;;5010786;28;20080;-76
2021/01/23 01:38:49;;;;;;;64.00;32.03;;;0.30;99.90;;;;;;5021651;28;20111;-76
2021/01/23 01:41:15;;;;;;;63.47;31.70;;;0.20;99.90;;;;;;5027055;28;20053;-75
2021/01/23 01:43:44;;;;;;;74.72;35.25;;;0.20;99.90;;;;;;5009973;28;20057;-76
2021/01/23 01:46:12;;;;;;;74.85;34.65;;;0.20;99.90;;;;;;5029426;28;20057;-76
2021/01/23 01:48:41;;;;;;;71.88;34.28;;;0.20;99.90;;;;;;5050548;28;20433;-76
2021/01/23 01:51:07;;;;;;;76.10;33.60;;;0.20;99.90;;;;;;5049493;28;20127;-76
2021/01/23 01:53:38;;;;;;;72.72;34.35;;;0.40;99.90;;;;;;5033899;28;20126;-76
2021/01/23 01:56:07;;;;;;;74.05;32.50;;;0.40;99.90;;;;;;5002382;28;20038;-76
2021/01/23 01:58:34;;;;;;;73.20;33.83;;;0.30;99.90;;;;;;5007742;28;20081;-76
2021/01/23 02:01:00;;;;;;;82.85;34.92;;;0.30;99.90;;;;;;5010155;28;20543;-76
2021/01/23 02:03:40;;;;;;;83.85;36.05;;;0.30;99.90;;;;;;5026106;28;20041;-76
2021/01/23 02:06:28;;;;;;;86.20;34.50;;;0.30;99.90;;;;;;5025679;28;20136;-76
2021/01/23 02:09:05;;;;;;;85.22;36.03;;;0.40;99.90;;;;;;5009096;28;20049;-75
2021/01/23 02:11:56;;;;;;;80.50;34.78;;;0.40;99.90;;;;;;5010232;28;20064;-76
2021/01/23 02:14:44;;;;;;;86.97;36.95;;;0.40;99.90;;;;;;5026266;28;20132;-76
2021/01/23 02:17:14;;;;;;;86.68;37.03;;;0.40;99.90;;;;;;5026621;28;20054;-76
2021/01/23 02:20:02;;;;;;;77.82;35.55;;;0.50;99.90;;;;;;5027281;28;20364;-76
2021/01/23 02:22:55;;;;;;;82.97;35.28;;;0.50;99.90;;;;;;5020739;28;20049;-77
2021/01/23 02:25:23;;;;;;;89.03;36.05;;;0.40;99.90;;;;;;5008792;28;20060;-76
2021/01/23 02:28:10;;;;;;;74.43;33.10;;;0.50;99.90;;;;;;4980483;28;20065;-75
2021/01/23 02:30:45;;;;;;;82.32;33.60;;;0.60;99.90;;;;;;5008866;28;20107;-75
2021/01/23 02:33:14;;;;;;;77.13;35.90;;;0.60;99.90;;;;;;5009426;28;20100;-75
2021/01/23 02:35:42;;;;;;;77.80;34.05;;;0.60;99.90;;;;;;5025613;28;20573;-76
2021/01/23 02:38:10;;;;;;;84.22;34.70;;;0.60;99.90;;;;;;5024936;28;20095;-76
2021/01/23 02:40:37;;;;;;;85.20;37.63;;;0.70;99.90;;;;;;5026126;28;20050;-75
2021/01/23 02:43:07;;;;;;;81.85;34.63;;;0.80;99.90;;;;;;5009741;28;20057;-75
2021/01/23 02:45:33;;;;;;;93.68;37.58;;;0.90;99.90;;;;;;5033989;28;20045;-76
2021/01/23 02:48:00;;;;;;;86.65;36.95;;;0.90;99.90;;;;;;5066537;28;20529;-77
2021/01/23 02:50:27;;;;;;;85.63;35.53;;;1.00;99.90;;;;;;5031737;28;20454;-75
2021/01/23 02:53:06;;;;;;;83.95;36.30;;;0.90;99.90;;;;;;4993385;28;20049;-76
2021/01/23 02:55:35;;;;;;;83.90;35.70;;;0.90;99.90;;;;;;5009320;28;20060;-76
2021/01/23 02:58:04;;;;;;;85.50;36.88;;;0.80;99.90;;;;;;5026273;28;20061;-76
2021/01/23 03:00:32;;;;;;;81.65;34.30;;;0.90;99.90;;;;;;5026641;28;20053;-76
2021/01/23 03:03:01;;;;;;;87.10;36.53;;;1.00;99.90;;;;;;5008576;28;20144;-76
2021/01/23 03:05:31;;;;;;;86.18;35.97;;;0.90;99.90;;;;;;5007425;28;20474;-76
2021/01/23 03:07:58;;;;;;;80.63;35.15;;;0.90;99.90;;;;;;5009217;28;20068;-76
2021/01/23 03:10:34;;;;;;;81.40;34.22;;;0.90;99.90;;;;;;5025941;28;20075;-76
2021/01/23 03:13:01;;;;;;;83.93;34.83;;;0.80;99.90;;;;;;4989498;28;20049;-76
2021/01/23 03:15:29;;;;;;;83.07;33.65;;;0.70;99.90;;;;;;5004844;28;20038;-76
2021/01/23 03:17:55;;;;;;;80.03;33.53;;;0.70;99.90;;;;;;4974249;28;20053;-76
2021/01/23 03:20:23;;;;;;;83.57;33.17;;;0.70;99.90;;;;;;5005869;28;20046;-75
2021/01/23 03:22:49;;;;;;;94.47;33.95;;;0.70;99.90;;;;;;5005109;28;20053;-76
2021/01/23 03:25:15;;;;;;;82.80;33.42;;;0.60;99.90;;;;;;5010934;28;20056;-76
2021/01/23 03:27:42;;;;;;;88.43;35.47;;;0.60;99.90;;;;;;5026334;28;20463;-77
2021/01/23 03:30:09;;;;;;;84.13;35.47;;;0.80;99.90;;;;;;5025611;28;20057;-76
2021/01/23 03:32:35;;;;;;;90.30;36.28;;;0.70;99.90;;;;;;5004268;28;20077;-75
2021/01/23 03:35:06;;;;;;;91.18;35.92;;;0.70;99.90;;;;;;5008855;28;20052;-76
2021/01/23 03:37:33;;;;;;;83.70;36.88;;;0.70;99.90;;;;;;4992580;28;20081;-76
2021/01/23 03:40:02;;;;;;;87.20;36.47;;;0.80;99.90;;;;;;5025099;28;20057;-76
2021/01/23 03:42:29;;;;;;;97.75;39.00;;;0.70;99.90;;;;;;4980776;28;20527;-76
2021/01/23 03:44:56;;;;;;;87.85;36.17;;;0.80;99.90;;;;;;5010010;28;20557;-76
2021/01/23 03:47:22;;;;;;;82.80;35.35;;;0.70;99.90;;;;;;5047603;28;20113;-76
2021/01/23 03:49:49;;;;;;;93.88;38.03;;;0.70;99.90;;;;;;5064960;28;20076;-77
2021/01/23 03:52:15;;;;;;;83.47;34.60;;;0.60;99.90;;;;;;5064009;28;20052;-76
2021/01/23 03:54:42;;;;;;;76.57;32.50;;;0.60;99.90;;;;;;5034683;28;20048;-76
2021/01/23 03:57:09;;;;;;;78.15;34.35;;;0.50;99.90;;;;;;5027816;28;20072;-77
2021/01/23 03:59:36;;;;;;;86.60;33.70;;;0.50;99.90;;;;;;5045624;28;20511;-76
2021/01/23 04:02:03;;;;;;;88.57;34.65;;;0.60;99.90;;;;;;5027065;28;20224;-75
2021/01/23 04:04:30;;;;;;;87.75;36.63;;;0.60;99.90;;;;;;5044483;28;20041;-77
2021/01/23 04:06:57;;;;;;;89.50;36.80;;;0.40;99.90;;;;;;5027142;28;20464;-76
2021/01/23 04:09:24;;;;;;;83.50;35.83;;;0.40;99.90;;;;;;5027408;28;20454;-76
2021/01/23 04:11:51;;;;;;;93.05;38.50;;;0.40;99.90;;;;;;5027735;28;20075;-76
2021/01/23 04:14:17;;;;;;;94.65;37.40;;;0.60;99.90;;;;;;5027660;28;20052;-76
2021/01/23 04:16:47;;;;;;;86.20;36.67;;;0.40;99.90;;;;;;5044183;28;20454;-76
2021/01/23 04:19:15;;;;;;;91.28;37.17;;;0.50;99.90;;;;;;5012183;28;20124;-76
2021/01/23 04:21:42;;;;;;;94.47;37.40;;;0.60;99.90;;;;;;5025967;28;20071;-76
2021/01/23 04:24:09;;;;;;;83.68;34.92;;;0.60;99.90;;;;;;5044392;28;20136;-76
2021/01/23 04:26:39;;;;;;;85.18;34.25;;;0.70;99.90;;;;;;5010594;28;20045;-76
2021/01/23 04:29:07;;;;;;;81.43;36.22;;;0.50;99.90;;;;;;5011662;28;20099;-77
2021/01/23 04:31:34;;;;;;;82.47;33.70;;;0.50;99.90;;;;;;5026071;28;20122;-76
2021/01/23 04:34:02;;;;;;;83.10;35.97;;;0.60;99.90;;;;;;5008562;28;20439;-78
2021/01/23 04:36:29;;;;;;;94.30;37.15;;;0.50;99.90;;;;;;5037270;28;20107;-76
2021/01/23 04:38:55;;;;;;;85.00;34.15;;;0.70;99.90;;;;;;5007886;28;20049;-76
2021/01/23 04:41:21;;;;;;;82.35;34.95;;;0.60;99.90;;;;;;5007723;28;20439;-76
2021/01/23 04:43:48;;;;;;;85.20;34.80;;;0.50;99.90;;;;;;5007561;28;20051;-76
2021/01/23 04:46:18;;;;;;;87.45;35.80;;;0.60;99.90;;;;;;5007257;28;20049;-75
2021/01/23 04:48:45;;;;;;;81.30;35.95;;;0.60;99.90;;;;;;5023743;28;20056;-76
2021/01/23 04:51:11;;;;;;;81.97;35.58;;;0.70;99.90;;;;;;5015417;28;20037;-76
2021/01/23 04:53:40;;;;;;;84.80;36.25;;;0.70;99.90;;;;;;5010958;28;20033;-76
2021/01/23 04:56:06;;;;;;;82.00;34.75;;;0.70;99.90;;;;;;5043798;28;20135;-75
2021/01/23 04:58:36;;;;;;;85.32;34.88;;;0.70;99.90;;;;;;5041743;28;20067;-76
2021/01/23 05:01:03;;;;;;;79.93;33.83;;;0.70;99.90;;;;;;4990343;28;20160;-76
2021/01/23 05:03:29;;;;;;;73.38;33.55;;;0.70;99.90;;;;;;5023576;28;20057;-76
2021/01/23 05:06:05;;;;;;;77.20;32.47;;;0.80;99.90;;;;;;5026456;28;20140;-76
2021/01/23 05:08:40;;;;;;;73.70;31.48;;;0.80;99.90;;;;;;5027192;28;20056;-76
2021/01/23 05:11:06;;;;;;;77.43;32.08;;;0.90;99.90;;;;;;5043616;28;20041;-77
2021/01/23 05:13:33;;;;;;;77.20;33.28;;;0.90;99.90;;;;;;5026194;28;20059;-76
2021/01/23 05:15:59;;;;;;;75.22;32.80;;;0.70;99.90;;;;;;5026441;28;20065;-76
2021/01/23 05:18:25;;;;;;;71.28;31.88;;;0.70;99.90;;;;;;5010598;28;20048;-76
2021/01/23 05:20:53;;;;;;;76.88;32.75;;;0.70;99.90;;;;;;5027742;28;20057;-76
2021/01/23 05:23:22;;;;;;;70.03;32.47;;;0.60;99.90;;;;;;5025963;28;20057;-76
2021/01/23 05:25:54;;;;;;;67.70;29.63;;;0.60;99.90;;;;;;5010792;28;20057;-76
2021/01/23 05:28:27;;;;;;;62.70;28.35;;;0.60;99.90;;;;;;5045223;28;20080;-75
2021/01/23 05:30:54;;;;;;;62.78;28.13;;;0.70;99.90;;;;;;5043242;28;20052;-75
2021/01/23 05:33:29;;;;;;;60.13;26.60;;;0.70;99.90;;;;;;5026098;28;20111;-76
2021/01/23 05:35:58;;;;;;;63.50;28.75;;;0.80;99.90;;;;;;5025690;28;20180;-76
2021/01/23 05:38:26;;;;;;;67.63;28.67;;;0.90;99.90;;;;;;5026881;28;20099;-76
2021/01/23 05:41:05;;;;;;;64.57;27.63;;;0.90;99.90;;;;;;5044770;28;20644;-76
2021/01/23 05:43:37;;;;;;;57.10;26.08;;;0.90;99.90;;;;;;5026077;28;20103;-75
2021/01/23 05:46:11;;;;;;;65.55;26.83;;;1.00;99.90;;;;;;5026342;28;20049;-76
2021/01/23 05:48:57;;;;;;;53.00;25.50;;;0.90;99.90;;;;;;5026790;28;20049;-75
2021/01/23 05:51:25;;;;;;;57.90;26.23;;;1.00;99.90;;;;;;5042125;28;20044;-76
2021/01/23 05:53:51;;;;;;;59.38;27.30;;;0.90;99.90;;;;;;5026905;28;20045;-75
2021/01/23 05:56:18;;;;;;;55.13;26.73;;;0.80;99.90;;;;;;5026682;28;20068;-75
2021/01/23 05:58:45;;;;;;;54.25;26.45;;;0.80;99.90;;;;;;5043531;28;20531;-76
2021/01/23 06:01:16;;;;;;;62.53;29.00;;;0.80;99.90;;;;;;5007746;28;20056;-77
2021/01/23 06:03:45;;;;;;;62.60;27.88;;;0.80;99.90;;;;;;5009439;28;20049;-76
2021/01/23 06:06:12;;;;;;;60.78;27.88;;;0.80;99.90;;;;;;5026403;28;20052;-76
2021/01/23 06:08:47;;;;;;;63.20;28.10;;;0.70;99.90;;;;;;5010421;28;20053;-77
2021/01/23 06:11:19;;;;;;;66.57;29.25;;;0.70;99.90;;;;;;5026333;28;20049;-76
2021/01/23 06:13:55;;;;;;;58.20;28.52;;;0.60;99.90;;;;;;5029431;28;20059;-76
2021/01/23 06:16:34;;;;;;;65.55;29.25;;;0.60;99.90;;;;;;5029019;28;20067;-76
2021/01/23 06:19:07;;;;;;;65.55;28.48;;;0.60;99.90;;;;;;5030818;28;20510;-76
2021/01/23 06:21:43;;;;;;;61.28;28.17;;;0.60;99.90;;;;;;5029587;28;20075;-76
2021/01/23 06:24:10;;;;;;;63.60;28.75;;;0.60;99.90;;;;;;5028627;28;20084;-75
2021/01/23 06:26:52;;;;;;;58.22;28.88;;;0.60;99.90;;;;;;5028355;28;20048;-76
2021/01/23 06:29:43;;;;;;;52.65;28.25;;;0.50;99.90;;;;;;5017645;28;20053;-76
2021/01/23 06:32:12;;;;;;;60.90;29.10;;;0.50;99.90;;;;;;5006258;28;20048;-76
2021/01/23 06:34:49;;;;;;;63.35;30.58;;;0.30;99.90;;;;;;5046256;28;20056;-75
2021/01/23 06:37:24;;;;;;;69.20;30.55;;;0.30;99.90;;;;;;5028237;28;20302;-76
2021/01/23 06:39:56;;;;;;;68.13;30.73;;;0.30;99.90;;;;;;5011153;28;20053;-75
2021/01/23 06:42:23;;;;;;;70.47;29.50;;;0.40;99.90;;;;;;5025083;28;20060;-76
2021/01/23 06:44:49;;;;;;;54.60;25.60;;;0.50;99.90;;;;;;5019399;28;20057;-76
2021/01/23 06:47:16;;;;;;;49.58;25.30;;;0.60;99.90;;;;;;5045151;28;20052;-76
2021/01/23 06:49:44;;;;;;;43.13;22.73;;;0.70;99.90;;;;;;5029245;28;20077;-75
2021/01/23 06:52:11;;;;;;;48.53;24.08;;;0.80;99.90;;;;;;5035142;28;20041;-76
2021/01/23 06:54:38;;;;;;;49.25;24.20;;;0.80;99.90;;;;;;5035466;28;20059;-75
2021/01/23 06:57:06;;;;;;;41.83;22.38;;;0.80;99.90;;;;;;5044585;28;20071;-76
2021/01/23 06:59:35;;;;;;;42.30;23.20;;;0.90;99.90;;;;;;5029204;28;20059;-76
2021/01/23 07:02:10;;;;;;;48.65;24.40;;;0.90;99.90;;;;;;5045333;28;20048;-76
2021/01/23 07:04:57;;;;;;;42.45;22.00;;;0.90;99.90;;;;;;5019158;28;20049;-76
2021/01/23 07:07:24;;;;;;;46.35;23.10;;;0.90;99.90;;;;;;5008090;28;20049;-76
2021/01/23 07:09:51;;;;;;;48.95;23.65;;;0.80;99.90;;;;;;5008742;28;20053;-76
2021/01/23 07:12:36;;;;;;;44.55;23.77;;;0.80;99.90;;;;;;5040431;28;20075;-76
2021/01/23 07:15:23;;;;;;;;;;;0.70;99.90;;;;;;5020175;28;20103;-76
2021/01/23 07:17:50;;;;;;;42.78;23.20;;;0.70;99.90;;;;;;5018286;28;19921;-76
2021/01/23 07:20:17;;;;;;;45.25;22.58;;;0.70;99.90;;;;;;5024739;28;20061;-77
2021/01/23 07:22:45;;;;;;;47.15;23.98;;;0.60;99.90;;;;;;5023741;28;20077;-76
2021/01/23 07:25:13;;;;;;;43.92;23.48;;;0.60;99.90;;;;;;5018246;28;20511;-76
2021/01/23 07:27:42;;;;;;;50.47;24.83;;;0.60;99.90;;;;;;5046090;28;20045;-76
2021/01/23 07:30:13;;;;;;;54.17;26.88;;;0.50;99.90;;;;;;5028151;28;20049;-76
2021/01/23 07:32:41;;;;;;;48.38;26.83;;;0.40;99.90;;;;;;5043058;28;20041;-76
2021/01/23 07:35:10;;;;;;;52.28;29.00;;;0.40;99.90;;;;;;5019661;28;20129;-76
2021/01/23 07:37:52;;;;;;;50.42;28.70;;;0.20;99.90;;;;;;5011586;28;20045;-76
2021/01/23 07:40:30;;;;;;;45.03;25.40;;;0.30;99.90;;;;;;5043568;28;20123;-76
2021/01/23 07:43:00;;;;;;;52.67;25.40;;;0.40;99.90;;;;;;5027542;28;20049;-78
2021/01/23 07:45:27;;;;;;;41.50;24.17;;;0.40;99.90;;;;;;5027629;28;20126;-77
2021/01/23 07:48:03;;;;;;;44.17;24.75;;;0.40;99.90;;;;;;5027149;28;20049;-77
2021/01/23 07:50:41;;;;;;;44.85;25.10;;;0.50;99.90;;;;;;5043108;28;20489;-75
2021/01/23 07:53:15;;;;;;;41.95;23.58;;;0.60;99.90;;;;;;5027319;28;20056;-76
2021/01/23 07:55:41;;;;;;;53.30;24.58;;;0.60;99.90;;;;;;5021526;28;20140;-75
2021/01/23 07:58:08;;;;;;;54.03;26.38;;;0.60;99.90;;;;;;5045209;28;20466;-76
2021/01/23 08:00:36;;;;;;;51.60;26.55;;;0.60;99.90;;;;;;5027694;28;20048;-76
2021/01/23 08:03:04;;;;;;;46.95;25.45;;;0.50;99.90;;;;;;5030072;28;20086;-76
2021/01/23 08:05:40;;;;;;;49.13;25.08;;;0.60;99.90;;;;;;5044225;28;20131;-76
2021/01/23 08:08:07;;;;;;;48.85;27.08;;;0.40;99.90;;;;;;5028258;28;20144;-76
2021/01/23 08:10:37;;;;;;;53.45;28.45;;;0.60;99.90;;;;;;5011358;28;20603;-77
2021/01/23 08:13:05;;;;;;;53.42;27.67;;;0.60;99.90;;;;;;5011587;28;20037;-76
2021/01/23 08:15:36;;;;;;;52.17;26.90;;;0.70;99.90;;;;;;5026918;28;20075;-78
2021/01/23 08:18:20;;;;;;;53.67;27.10;;;0.70;99.90;;;;;;5045213;28;20439;-76
2021/01/23 08:20:47;;;;;;;45.42;25.15;;;0.70;99.90;;;;;;5044457;28;20152;-76
2021/01/23 08:23:15;;;;;;;48.75;25.67;;;0.80;99.90;;;;;;5026678;28;20053;-76
2021/01/23 08:25:44;;;;;;;50.97;25.20;;;0.80;99.90;;;;;;5044653;28;20045;-76
2021/01/23 08:28:13;;;;;;;46.67;26.02;;;0.90;99.90;;;;;;5010345;28;20099;-76
2021/01/23 08:30:40;;;;;;;46.20;26.20;;;0.90;99.90;;;;;;5027176;28;20613;-76
2021/01/23 08:33:09;;;;;;;50.67;27.45;;;1.00;99.90;;;;;;5009043;28;20605;-76
2021/01/23 08:35:41;;;;;;;57.72;30.50;;;0.90;99.90;;;;;;5026794;28;20076;-76
2021/01/23 08:38:10;;;;;;;49.55;26.85;;;1.10;99.90;;;;;;5044299;28;20053;-76
2021/01/23 08:40:39;;;;;;;49.83;26.60;;;1.10;99.90;;;;;;5010203;28;20143;-76
2021/01/23 08:43:05;;;;;;;43.05;25.58;;;1.10;99.90;;;;;;5022205;28;20504;-76
2021/01/23 08:45:32;;;;;;;45.40;25.55;;;1.20;99.90;;;;;;5004202;28;20054;-76
2021/01/23 08:47:59;;;;;;;44.65;24.75;;;1.20;99.90;;;;;;5024884;28;20783;-76
2021/01/23 08:50:25;;;;;;;43.88;25.90;;;1.20;99.90;;;;;;5037323;28;20077;-76
2021/01/23 08:52:52;;;;;;;60.63;29.98;;;1.20;99.90;;;;;;5043986;28;20079;-76
2021/01/23 08:55:18;;;;;;;57.80;30.55;;;1.10;99.90;;;;;;5042599;28;20545;-76
2021/01/23 08:57:45;;;;;;;57.97;29.20;;;1.20;99.90;;;;;;5024242;28;20061;-76
2021/01/23 09:00:14;;;;;;;50.90;26.23;;;1.30;99.90;;;;;;5026902;28;20139;-76
2021/01/23 09:02:41;;;;;;;57.58;30.20;;;1.30;99.90;;;;;;5011044;28;20143;-76
2021/01/23 09:05:10;;;;;;;54.55;29.17;;;1.40;99.90;;;;;;5027158;28;20139;-76
2021/01/23 09:07:39;;;;;;;47.85;27.50;;;1.40;99.90;;;;;;5023950;28;20072;-76
2021/01/23 09:10:10;;;;;;;49.38;28.73;;;1.50;99.90;;;;;;5026493;28;20037;-76
2021/01/23 09:12:37;;;;;;;54.53;29.80;;;1.50;99.90;;;;;;5043520;28;20098;-75
2021/01/23 09:15:06;;;;;;;49.20;28.90;;;1.60;99.90;;;;;;5034316;28;20061;-74
2021/01/23 09:17:32;;;;;;;49.15;29.00;;;1.60;99.90;;;;;;5023993;28;20148;-75
2021/01/23 09:20:00;;;;;;;50.42;29.20;;;1.70;99.90;;;;;;5043187;28;20659;-75
2021/01/23 09:22:27;;;;;;;53.15;28.38;;;1.80;99.90;;;;;;5033779;28;20479;-76
2021/01/23 09:24:53;;;;;;;49.80;27.92;;;1.80;99.90;;;;;;5023390;28;20139;-75
2021/01/23 09:27:20;;;;;;;43.88;25.52;;;1.80;99.90;;;;;;5026035;28;20095;-74
2021/01/23 09:29:46;;;;;;;44.35;27.63;;;1.90;99.90;;;;;;5022950;28;20072;-75
2021/01/23 09:32:13;;;;;;;44.50;26.58;;;2.00;99.90;;;;;;5025919;28;20049;-74
2021/01/23 09:34:39;;;;;;;42.83;26.35;;;2.10;99.90;;;;;;5026533;28;20507;-75
2021/01/23 09:37:06;;;;;;;43.17;26.10;;;2.20;99.90;;;;;;5045119;28;20080;-74
2021/01/23 09:39:32;;;;;;;36.00;21.67;;;2.30;99.90;;;;;;5026209;28;20059;-75
2021/01/23 09:41:59;;;;;;;42.50;27.05;;;2.30;99.90;;;;;;5026428;28;20475;-75
2021/01/23 09:44:26;;;;;;;42.88;24.50;;;2.30;99.90;;;;;;5031280;28;20052;-74
2021/01/23 09:46:54;;;;;;;48.28;25.63;;;2.30;99.90;;;;;;5027353;28;20049;-75
2021/01/23 09:49:21;;;;;;;41.83;23.67;;;2.30;99.90;;;;;;5027945;28;20053;-74
2021/01/23 09:51:48;;;;;;;48.75;24.80;;;2.40;99.90;;;;;;5027288;28;20059;-77
2021/01/23 09:54:15;;;;;;;41.53;25.67;;;2.50;99.90;;;;;;5037861;28;20407;-77
2021/01/23 09:57:00;;;;;;;34.58;21.38;;;2.60;99.90;;;;;;5045546;28;20102;-76
2021/01/23 09:59:26;;;;;;;39.47;24.73;;;2.70;99.90;;;;;;5049915;28;20458;-75
2021/01/23 10:01:53;;;;;;;39.55;21.58;;;2.60;99.90;;;;;;5031586;28;20049;-77
2021/01/23 10:04:20;;;;;;;33.35;20.25;;;2.60;99.90;;;;;;5035832;28;20136;-77
2021/01/23 10:06:46;;;;;;;35.25;20.67;;;2.60;99.90;;;;;;5048342;28;20056;-77
2021/01/23 10:09:13;;;;;;;37.45;22.48;;;2.60;99.90;;;;;;5040887;28;20049;-77
2021/01/23 10:11:39;;;;;;;36.78;22.45;;;2.70;99.90;;;;;;5050069;28;20056;-78
2021/01/23 10:14:06;;;;;;;45.80;26.00;;;2.70;99.90;;;;;;5032684;28;20037;-76
2021/01/23 10:16:32;;;;;;;43.22;25.25;;;2.80;99.90;;;;;;5032947;28;20048;-76
2021/01/23 10:19:03;;;;;;;32.30;20.63;;;2.70;99.90;;;;;;5029344;28;20057;-77
2021/01/23 10:21:31;;;;;;;40.03;21.52;;;2.50;99.90;;;;;;5045432;28;20080;-77
2021/01/23 10:23:58;;;;;;;35.85;20.77;;;2.50;99.90;;;;;;5030444;28;20112;-78
2021/01/23 10:26:26;;;;;;;37.08;21.25;;;2.50;99.90;;;;;;5047479;28;20045;-77
2021/01/23 10:28:54;;;;;;;33.75;21.17;;;2.50;99.90;;;;;;5048644;28;20055;-77
2021/01/23 10:31:20;;;;;;;35.53;20.90;;;2.50;99.90;;;;;;5032490;28;20049;-78
2021/01/23 10:33:47;;;;;;;36.47;22.10;;;2.50;99.90;;;;;;5022250;28;20419;-77
2021/01/23 10:36:13;;;;;;;31.42;19.80;;;2.50;99.90;;;;;;5020662;28;20067;-78
2021/01/23 10:38:40;;;;;;;40.10;22.60;;;2.50;99.90;;;;;;5031177;28;20045;-76
2021/01/23 10:41:06;;;;;;;39.63;20.63;;;2.50;99.90;;;;;;5028227;28;20474;-76
2021/01/23 10:43:33;;;;;;;34.50;21.23;;;2.30;99.90;;;;;;5031193;28;20132;-77
2021/01/23 10:45:59;;;;;;;40.65;23.20;;;2.20;99.90;;;;;;5031263;28;20044;-77
2021/01/23 10:48:26;;;;;;;42.38;22.52;;;2.20;99.90;;;;;;5030791;28;20136;-77
2021/01/23 10:50:52;;;;;;;35.55;20.85;;;2.30;99.90;;;;;;5030481;28;20087;-78
2021/01/23 10:53:19;;;;;;;38.65;22.27;;;2.30;99.90;;;;;;5015294;28;20552;-78
2021/01/23 10:55:45;;;;;;;35.90;21.77;;;2.30;99.90;;;;;;5031753;28;20053;-77
2021/01/23 10:58:12;;;;;;;37.03;21.52;;;2.30;99.90;;;;;;5048268;28;20095;-77
2021/01/23 11:00:38;;;;;;;38.05;21.10;;;2.30;99.90;;;;;;5029215;28;20041;-77
2021/01/23 11:03:06;;;;;;;31.73;20.05;;;2.30;99.90;;;;;;5045368;28;20538;-77
2021/01/23 11:05:33;;;;;;;34.95;20.17;;;2.40;99.90;;;;;;5031027;28;20053;-77
2021/01/23 11:07:59;;;;;;;33.92;20.00;;;2.50;99.90;;;;;;5032143;28;20057;-77
2021/01/23 11:10:26;;;;;;;31.73;17.38;;;2.50;99.90;;;;;;5047744;28;20053;-77
2021/01/23 11:12:53;;;;;;;31.23;18.92;;;2.50;99.90;;;;;;5030601;28;20055;-78
2021/01/23 11:15:19;;;;;;;35.53;21.77;;;2.60;99.90;;;;;;5030969;28;20153;-77
2021/01/23 11:17:46;;;;;;;32.67;20.60;;;2.60;99.90;;;;;;5049229;28;20049;-76
2021/01/23 11:20:13;;;;;;;30.02;19.10;;;2.70;99.90;;;;;;5034455;28;20515;-78
2021/01/23 11:22:40;;;;;;;35.25;19.75;;;2.80;99.90;;;;;;5047855;28;20059;-78
2021/01/23 11:25:07;;;;;;;30.67;19.80;;;2.80;99.90;;;;;;5023779;28;20151;-78
2021/01/23 11:27:34;;;;;;;29.00;18.98;;;2.90;99.90;;;;;;5027954;28;20632;-78
2021/01/23 11:30:01;;;;;;;29.65;17.80;;;2.90;99.90;;;;;;5032485;28;20075;-77
2021/01/23 11:32:28;;;;;;;33.38;20.60;;;2.90;99.90;;;;;;5026453;28;20072;-78
2021/01/23 11:34:55;;;;;;;26.50;17.65;;;3.00;99.90;;;;;;5047212;28;20132;-77
2021/01/23 11:37:22;;;;;;;30.48;19.40;;;2.90;99.90;;;;;;5047616;28;20570;-77
2021/01/23 11:39:48;;;;;;;22.80;18.40;;;3.00;99.90;;;;;;5030476;28;20052;-78
2021/01/23 11:42:15;;;;;;;31.33;19.88;;;3.00;99.90;;;;;;5000370;28;20464;-75
2021/01/23 11:44:41;;;;;;;26.83;18.80;;;3.00;99.90;;;;;;5046963;28;20104;-75
2021/01/23 11:47:08;;;;;;;31.00;20.02;;;2.90;99.90;;;;;;5043860;28;20048;-75
2021/01/23 11:49:34;;;;;;;23.15;18.13;;;3.00;99.90;;;;;;5045381;28;20056;-76
2021/01/23 11:52:03;;;;;;;28.83;19.52;;;3.20;99.90;;;;;;5028092;28;20073;-76
2021/01/23 11:54:29;;;;;;;23.02;16.70;;;3.30;99.90;;;;;;5046518;28;20141;-76
2021/01/23 11:56:56;;;;;;;23.83;18.80;;;3.50;99.90;;;;;;5030130;28;20072;-76
2021/01/23 11:59:22;;;;;;;27.95;20.48;;;3.60;99.90;;;;;;5014138;28;20341;-76
2021/01/23 12:01:49;;;;;;;23.42;17.35;;;3.70;99.90;;;;;;5046871;28;20056;-77
2021/01/23 12:04:18;;;;;;;23.73;18.85;;;3.80;99.90;;;;;;5006184;28;20049;-77
2021/01/23 12:06:46;;;;;;;31.63;25.45;;;3.80;99.90;;;;;;5026991;28;20106;-77
2021/01/23 12:09:12;;;;;;;27.60;19.85;;;3.90;99.90;;;;;;5009955;28;20099;-76
2021/01/23 12:11:39;;;;;;;25.50;20.30;;;3.90;99.90;;;;;;5028162;28;20053;-77
2021/01/23 12:14:06;;;;;;;23.67;18.48;;;4.00;99.90;;;;;;5028750;28;20162;-76
2021/01/23 12:16:32;;;;;;;21.17;16.80;;;4.10;99.90;;;;;;5028990;28;20254;-76
2021/01/23 12:18:59;;;;;;;21.63;17.25;;;4.10;99.90;;;;;;5030437;28;20125;-76
2021/01/23 12:21:26;;;;;;;21.45;17.55;;;4.20;99.90;;;;;;5014084;28;20053;-77
2021/01/23 12:23:53;;;;;;;22.98;19.95;;;4.10;99.90;;;;;;5025360;28;20669;-77
2021/01/23 12:26:20;;;;;;;25.55;18.88;;;4.10;99.90;;;;;;4992766;28;20053;-76
2021/01/23 12:28:47;;;;;;;24.10;18.80;;;4.10;99.90;;;;;;5035496;28;20057;-77
2021/01/23 12:31:14;;;;;;;23.70;18.02;;;4.10;99.90;;;;;;5037981;28;20077;-77
2021/01/23 12:33:40;;;;;;;22.20;16.98;;;4.10;99.90;;;;;;5027104;28;20143;-75
2021/01/23 12:36:08;;;;;;;18.45;16.38;;;4.20;99.90;;;;;;5028433;28;20143;-76
2021/01/23 12:38:35;;;;;;;25.05;20.30;;;4.20;99.90;;;;;;5044269;28;20151;-76
2021/01/23 12:41:01;;;;;;;26.67;19.65;;;4.20;99.90;;;;;;5026039;28;20045;-75
2021/01/23 12:43:28;;;;;;;17.92;16.13;;;4.30;99.90;;;;;;5026980;28;20080;-77
2021/01/23 12:45:54;;;;;;;20.23;17.40;;;4.40;99.90;;;;;;5027227;28;20084;-77